Time;durP1;ratioP1;P1;durP2;ratioP2;P2;SDS_P1;SDS_P2;PMS_P1;PMS_P2;Temp;Humidity;BMP_temperature;BMP_pressure;BME280_temperature;BME280_humidity;BME280_pressure;Samples;Min_cycle;Max_cycle;Signal;HPM_P1;HPM_P2
2023/03/31 00:01:40;;;;;;;1.77;1.67;;;;;;;8.20;58.62;62839.50;5038284;28;20609;-76
2023/03/31 00:04:08;;;;;;;2.28;2.08;;;;;;;8.16;58.70;62840.44;5044370;28;20209;-76
2023/03/31 00:06:37;;;;;;;3.72;2.00;;;;;;;8.12;58.85;62830.72;5035587;28;20340;-77
2023/03/31 00:09:05;;;;;;;5.93;2.15;;;;;;;8.22;57.79;62841.03;5047578;28;20248;-77
2023/03/31 00:11:32;;;;;;;3.08;1.98;;;;;;;8.24;58.48;62848.19;5048709;28;20417;-75
2023/03/31 00:13:59;;;;;;;3.95;2.13;;;;;;;8.20;59.18;62842.03;5035350;28;20207;-76
2023/03/31 00:16:27;;;;;;;2.33;1.80;;;;;;;8.23;58.30;62847.16;5038099;28;20202;-76
2023/03/31 00:18:54;;;;;;;5.50;1.60;;;;;;;8.23;58.26;62844.63;5047461;28;20537;-76
2023/03/31 00:21:28;;;;;;;2.42;1.90;;;;;;;8.32;58.22;62851.38;5042786;28;20214;-77
2023/03/31 00:23:57;;;;;;;2.33;2.13;;;;;;;8.33;58.29;62854.44;5046198;28;20496;-76
2023/03/31 00:26:25;;;;;;;2.92;2.13;;;;;;;8.32;59.43;62850.88;5044274;28;20229;-76
2023/03/31 00:28:52;;;;;;;2.40;2.20;;;;;;;8.28;59.72;62851.81;5049480;28;20202;-75
2023/03/31 00:31:19;;;;;;;1.80;1.70;;;;;;;8.34;58.87;62858.00;5039752;28;20305;-75
2023/03/31 00:33:49;;;;;;;5.57;2.08;;;;;;;8.41;58.06;62863.22;5046744;28;20436;-76
2023/03/31 00:36:20;;;;;;;2.55;1.92;;;;;;;8.39;59.18;62858.63;5046226;28;20209;-75
2023/03/31 00:38:47;;;;;;;2.30;1.77;;;;;;;8.34;59.43;62856.00;5030873;28;20217;-76
2023/03/31 00:41:14;;;;;;;2.83;2.00;;;;;;;8.44;59.44;62868.34;5032322;28;20277;-75
2023/03/31 00:43:42;;;;;;;4.63;1.92;;;;;;;8.51;59.35;62876.09;5042809;28;20420;-75
2023/03/31 00:46:16;;;;;;;5.90;1.83;;;;;;;8.52;59.27;62874.59;5031869;28;20203;-75
2023/03/31 00:48:51;;;;;;;2.15;2.05;;;;;;;8.54;59.60;62876.13;5030988;28;20203;-75
2023/03/31 00:51:20;;;;;;;2.20;2.10;;;;;;;8.61;59.76;62883.88;5040527;28;20224;-75
2023/03/31 00:53:54;;;;;;;2.55;1.98;;;;;;;8.60;59.15;62880.31;5044816;28;20421;-75
2023/03/31 00:56:21;;;;;;;5.68;2.08;;;;;;;8.66;58.30;62893.63;5037370;28;20261;-75
2023/03/31 00:58:49;;;;;;;5.10;2.53;;;;;;;8.67;58.78;62890.09;5033180;28;20217;-75
2023/03/31 01:01:20;;;;;;;4.88;2.38;;;;;;;8.73;58.81;62893.22;5039343;28;20248;-76
2023/03/31 01:03:49;;;;;;;1.88;1.77;;;;;;;8.80;58.90;62905.53;5045224;28;20205;-75
2023/03/31 01:06:19;;;;;;;2.08;1.92;;;;;;;8.91;58.29;62916.91;5046004;28;20198;-76
2023/03/31 01:08:48;;;;;;;6.15;2.40;;;;;;;8.94;58.13;62917.47;5049893;28;20241;-75
2023/03/31 01:11:19;;;;;;;2.42;2.22;;;;;;;8.98;58.08;62917.03;5038793;28;20224;-76
2023/03/31 01:13:49;;;;;;;2.67;1.75;;;;;;;8.81;60.07;62904.56;5045969;28;20519;-76
2023/03/31 01:16:16;;;;;;;2.78;2.22;;;;;;;8.74;59.91;62899.84;5044072;28;20222;-76
2023/03/31 01:18:48;;;;;;;6.65;3.28;;;;;;;8.80;60.22;62903.50;5042911;28;20273;-76
2023/03/31 01:21:58;;;;;;;7.22;2.40;;;;;;;8.93;58.87;62916.94;5046124;28;20236;-75
2023/03/31 01:25:02;;;;;;;3.95;2.50;;;;;;;8.98;59.35;62924.13;5009628;28;20198;-76
2023/03/31 01:27:43;;;;;;;6.95;2.80;;;;;;;9.01;58.81;62925.22;5000532;28;20277;-76
2023/03/31 01:30:45;;;;;;;4.97;2.83;;;;;;;9.03;58.80;62926.75;5029543;28;20198;-76
2023/03/31 01:33:44;;;;;;;5.88;2.92;;;;;;;9.06;59.29;62922.25;5038860;28;20222;-75
2023/03/31 01:36:41;;;;;;;5.18;3.25;;;;;;;9.26;57.95;62951.06;5046349;28;20201;-75
2023/03/31 01:39:34;;;;;;;3.17;2.83;;;;;;;9.18;58.75;62939.75;5040134;28;20209;-76
2023/03/31 01:42:11;;;;;;;6.15;3.60;;;;;;;9.16;58.69;62938.16;5044076;28;20277;-75
2023/03/31 01:44:44;;;;;;;5.05;2.97;;;;;;;9.21;59.04;62940.78;5046999;28;20206;-76
2023/03/31 01:47:16;;;;;;;4.65;3.13;;;;;;;9.27;58.55;62954.63;5043144;28;20240;-76
2023/03/31 01:49:52;;;;;;;3.53;2.83;;;;;;;9.30;58.46;62954.69;5037872;28;20257;-76
2023/03/31 01:52:22;;;;;;;4.53;2.90;;;;;;;9.29;59.23;62956.69;5046194;28;20263;-77
2023/03/31 01:54:55;;;;;;;4.70;2.90;;;;;;;9.35;58.94;62959.84;5042891;28;20232;-75
2023/03/31 01:57:32;;;;;;;5.32;3.17;;;;;;;9.39;59.06;62961.44;5025181;28;20543;-75
2023/03/31 02:00:04;;;;;;;6.85;3.60;;;;;;;9.24;59.34;62951.00;5039404;28;20205;-76
2023/03/31 02:02:37;;;;;;;6.18;3.22;;;;;;;9.21;61.42;62942.84;5024912;28;20421;-76
2023/03/31 02:05:09;;;;;;;3.80;3.47;;;;;;;9.26;61.71;62953.59;5036409;28;20537;-75
2023/03/31 02:07:43;;;;;;;11.73;3.75;;;;;;;9.28;60.22;62952.63;5043142;28;20283;-76
2023/03/31 02:10:13;;;;;;;7.00;3.70;;;;;;;9.28;59.97;62953.13;5046023;28;20206;-75
2023/03/31 02:12:44;;;;;;;5.30;3.83;;;;;;;9.31;58.50;62956.22;5044124;28;20682;-75
2023/03/31 02:15:17;;;;;;;9.80;4.03;;;;;;;9.30;60.12;62952.66;5025206;28;20198;-75
2023/03/31 02:17:49;;;;;;;4.47;3.47;;;;;;;9.20;61.00;62944.34;5024374;28;20234;-75
2023/03/31 02:20:20;;;;;;;7.10;3.92;;;;;;;9.32;60.22;62962.34;5027010;28;20496;-75
2023/03/31 02:22:51;;;;;;;7.63;3.58;;;;;;;9.22;60.15;62949.47;5033158;28;20222;-75
2023/03/31 02:25:22;;;;;;;7.70;4.00;;;;;;;9.11;62.49;62938.09;5044061;28;20425;-76
2023/03/31 02:27:56;;;;;;;13.55;4.68;;;;;;;9.03;61.97;62926.75;5045439;28;20297;-76
2023/03/31 02:30:25;;;;;;;5.78;4.78;;;;;;;8.89;64.15;62910.28;5044291;28;20198;-76
2023/03/31 02:32:52;;;;;;;6.07;4.03;;;;;;;8.76;67.23;62904.47;5037212;28;20230;-76
2023/03/31 02:35:21;;;;;;;8.82;4.65;;;;;;;8.62;67.05;62887.47;5025016;28;20206;-76
2023/03/31 02:37:49;;;;;;;5.93;3.08;;;;;;;8.55;71.21;62877.69;5024336;28;20223;-76
2023/03/31 02:40:21;;;;;;;3.35;3.00;;;;;;;8.67;77.11;62892.09;5029246;28;20209;-76
2023/03/31 02:42:50;;;;;;;5.97;1.73;;;;;;;8.76;85.04;62898.88;5045614;28;20221;-76
2023/03/31 02:45:42;;;;;;;2.45;1.48;;;;;;;8.91;83.13;62914.88;5026622;28;20414;-76
2023/03/31 02:48:15;;;;;;;1.25;1.23;;;;;;;8.83;94.06;62906.09;5024107;28;20245;-76
2023/03/31 02:51:07;;;;;;;2.97;1.50;;;;;;;8.68;97.66;62893.66;5039297;28;20205;-76
2023/03/31 02:53:43;;;;;;;2.78;1.45;;;;;;;8.57;99.95;62881.78;5046476;28;20256;-76
2023/03/31 02:56:26;;;;;;;1.52;1.35;;;;;;;8.40;100.00;62859.13;5043794;28;20210;-77
2023/03/31 02:59:16;;;;;;;3.08;1.52;;;;;;;8.23;100.00;62847.16;5042616;28;20198;-76
2023/03/31 03:02:01;;;;;;;1.92;1.58;;;;;;;8.24;100.00;62845.66;5044848;28;20268;-75
2023/03/31 03:04:42;;;;;;;1.90;1.65;;;;;;;8.25;100.00;62846.69;5037798;28;20420;-76
2023/03/31 03:07:21;;;;;;;2.75;1.35;;;;;;;8.22;100.00;62843.56;5025836;28;20463;-75
2023/03/31 03:10:00;;;;;;;1.60;1.50;;;;;;;8.22;100.00;62848.66;5047527;28;20198;-76
2023/03/31 03:12:33;;;;;;;4.35;2.15;;;;;;;8.34;100.00;62858.53;5043151;28;20260;-75
2023/03/31 03:15:08;;;;;;;3.13;2.30;;;;;;;8.34;100.00;62852.94;5043892;28;20228;-75
2023/03/31 03:17:39;;;;;;;1.88;1.55;;;;;;;8.33;100.00;62859.50;5032433;28;20230;-75
2023/03/31 03:20:08;;;;;;;3.28;1.85;;;;;;;8.32;100.00;62855.97;5030948;28;20271;-77
2023/03/31 03:22:36;;;;;;;4.57;1.98;;;;;;;8.39;100.00;62860.66;5034972;28;20229;-74
2023/03/31 03:25:03;;;;;;;2.08;1.90;;;;;;;8.42;100.00;62858.66;5026422;28;20190;-75
2023/03/31 03:27:31;;;;;;;2.50;1.77;;;;;;;8.49;99.39;62865.91;5041734;28;20263;-75
2023/03/31 03:29:58;;;;;;;2.53;1.55;;;;;;;8.55;100.00;62875.16;5039350;28;20206;-75
2023/03/31 03:32:26;;;;;;;1.80;1.70;;;;;;;8.58;95.29;62880.25;5037564;28;20515;-75
2023/03/31 03:34:54;;;;;;;2.70;1.90;;;;;;;8.64;96.25;62883.94;5032422;28;20269;-76
2023/03/31 03:37:20;;;;;;;2.88;1.65;;;;;;;8.70;96.03;62892.66;5042744;28;20224;-75
2023/03/31 03:39:47;;;;;;;1.52;1.42;;;;;;;8.71;96.33;62894.22;5036026;28;20246;-76
2023/03/31 03:42:14;;;;;;;1.90;1.80;;;;;;;8.81;97.39;62899.47;5023694;28;20281;-75
2023/03/31 03:44:41;;;;;;;1.73;1.58;;;;;;;8.79;96.06;62899.41;5041347;28;20206;-77
2023/03/31 03:47:09;;;;;;;3.00;1.92;;;;;;;8.84;96.12;62904.59;5041321;28;20232;-76
2023/03/31 03:49:37;;;;;;;1.98;1.83;;;;;;;8.95;97.29;62919.03;5032877;28;20194;-76
2023/03/31 03:52:04;;;;;;;3.60;1.90;;;;;;;8.89;97.97;62910.28;5041058;28;20214;-75
2023/03/31 03:54:31;;;;;;;2.78;1.75;;;;;;;8.68;100.00;62891.09;5041869;28;20206;-76
2023/03/31 03:56:58;;;;;;;3.17;2.42;;;;;;;8.68;100.00;62893.66;5038384;28;20226;-75
2023/03/31 03:59:25;;;;;;;2.53;2.30;;;;;;;8.71;100.00;62896.75;5034727;28;20202;-75
2023/03/31 04:01:52;;;;;;;2.55;2.35;;;;;;;8.79;100.00;62901.97;5025146;28;20223;-75
2023/03/31 04:04:19;;;;;;;2.47;2.28;;;;;;;8.68;98.21;62893.16;5040530;28;20214;-76
2023/03/31 04:06:48;;;;;;;2.58;2.38;;;;;;;8.63;97.46;62891.03;5043650;28;20222;-75
2023/03/31 04:09:15;;;;;;;2.10;2.00;;;;;;;8.70;96.54;62895.19;5042605;28;20230;-75
2023/03/31 04:11:42;;;;;;;2.55;2.00;;;;;;;8.73;96.23;62898.81;5034149;28;20218;-75
2023/03/31 04:14:09;;;;;;;2.28;2.08;;;;;;;8.80;96.81;62903.00;5034581;28;20213;-75
2023/03/31 04:16:37;;;;;;;2.90;2.53;;;;;;;8.78;95.83;62903.47;5045138;28;20240;-76
2023/03/31 04:19:04;;;;;;;4.63;2.10;;;;;;;8.83;92.11;62909.16;5044439;28;20214;-77
2023/03/31 04:21:33;;;;;;;3.92;2.45;;;;;;;8.92;91.86;62915.91;5042536;28;20226;-75
2023/03/31 04:24:03;;;;;;;2.80;2.60;;;;;;;8.96;95.74;62924.59;5049390;28;20265;-75
2023/03/31 04:26:37;;;;;;;4.63;2.90;;;;;;;8.95;98.15;62918.50;5044530;28;20225;-76
2023/03/31 04:29:04;;;;;;;4.45;3.20;;;;;;;8.97;98.38;62923.09;5045051;28;20276;-74
2023/03/31 04:31:31;;;;;;;3.10;2.85;;;;;;;9.00;99.55;62926.72;5046837;28;20263;-75
2023/03/31 04:34:05;;;;;;;3.90;2.70;;;;;;;9.01;99.44;62927.22;5029104;28;20266;-75
2023/03/31 04:36:33;;;;;;;3.88;2.97;;;;;;;9.05;98.63;62923.75;5037447;28;20621;-76
2023/03/31 04:39:01;;;;;;;3.25;2.95;;;;;;;9.01;99.27;62924.69;5030217;28;20232;-75
2023/03/31 04:41:28;;;;;;;4.80;3.03;;;;;;;9.02;99.36;62928.81;5043410;28;20246;-76
2023/03/31 04:43:55;;;;;;;4.13;3.55;;;;;;;9.04;97.66;62930.84;5037827;28;20198;-76
2023/03/31 04:46:22;;;;;;;3.58;3.13;;;;;;;8.81;99.61;62904.03;5046128;28;20202;-77
2023/03/31 04:48:49;;;;;;;4.65;3.30;;;;;;;8.88;100.00;62908.72;5047010;28;20230;-76
2023/03/31 04:51:16;;;;;;;4.13;3.72;;;;;;;8.96;98.77;62919.53;5045569;28;20202;-76
2023/03/31 04:53:43;;;;;;;5.70;3.47;;;;;;;9.00;99.18;62923.66;5029651;28;20583;-76
2023/03/31 04:56:12;;;;;;;3.90;3.40;;;;;;;9.10;94.55;62934.00;5037789;28;20225;-75
2023/03/31 04:58:39;;;;;;;10.23;3.88;;;;;;;9.14;92.00;62943.22;5049365;28;20206;-76
2023/03/31 05:01:06;;;;;;;5.07;3.40;;;;;;;9.24;91.39;62948.47;5029720;28;20194;-76
2023/03/31 05:03:34;;;;;;;5.57;3.63;;;;;;;9.11;93.76;62935.03;5030238;28;20211;-76
2023/03/31 05:06:01;;;;;;;5.65;3.45;;;;;;;9.07;97.26;62930.91;5044260;28;20198;-75
2023/03/31 05:08:28;;;;;;;6.38;3.75;;;;;;;9.20;98.09;62941.78;5041138;28;20302;-75
2023/03/31 05:10:55;;;;;;;3.88;3.10;;;;;;;9.34;97.42;62961.34;5027388;28;20195;-76
2023/03/31 05:13:24;;;;;;;3.63;3.33;;;;;;;9.24;98.18;62948.47;5028024;28;20326;-76
2023/03/31 05:15:51;;;;;;;5.30;3.67;;;;;;;9.18;98.68;62939.75;5028883;28;20233;-75
2023/03/31 05:18:19;;;;;;;3.72;3.42;;;;;;;9.27;98.80;62954.63;5028125;28;20230;-75
2023/03/31 05:20:46;;;;;;;7.20;3.45;;;;;;;9.37;98.15;62963.94;5028909;28;20429;-76
2023/03/31 05:23:13;;;;;;;3.65;3.35;;;;;;;9.41;97.31;62968.59;5025694;28;20234;-76
2023/03/31 05:25:41;;;;;;;3.72;3.10;;;;;;;9.49;93.22;62979.41;5034053;28;20356;-74
2023/03/31 05:28:09;;;;;;;3.92;3.63;;;;;;;9.27;95.63;62954.63;5044966;28;20242;-75
2023/03/31 05:30:37;;;;;;;4.68;2.95;;;;;;;9.12;96.75;62944.22;5044596;28;20198;-77
2023/03/31 05:33:04;;;;;;;4.95;3.88;;;;;;;9.02;94.62;62925.75;5026625;28;20419;-76
2023/03/31 05:35:31;;;;;;;4.57;3.83;;;;;;;9.02;95.59;62928.28;5029554;28;20228;-76
2023/03/31 05:37:58;;;;;;;4.95;3.90;;;;;;;9.09;94.09;62930.44;5044929;28;20465;-75
2023/03/31 05:40:25;;;;;;;4.43;3.88;;;;;;;9.19;92.55;62946.38;5037806;28;20214;-75
2023/03/31 05:42:52;;;;;;;5.90;3.70;;;;;;;9.04;92.94;62927.81;5025864;28;20219;-75
2023/03/31 05:45:18;;;;;;;5.32;3.67;;;;;;;8.99;93.51;62923.16;5035981;28;20240;-75
2023/03/31 05:47:47;;;;;;;7.30;4.05;;;;;;;9.06;94.92;62932.91;5040212;28;20222;-74
2023/03/31 05:50:13;;;;;;;4.90;3.60;;;;;;;9.19;91.25;62943.31;5031001;28;20265;-74
2023/03/31 05:52:40;;;;;;;3.42;3.05;;;;;;;9.52;91.02;62977.44;5030020;28;20312;-76
2023/03/31 05:55:08;;;;;;;8.75;4.13;;;;;;;9.73;88.35;63001.16;5030222;28;20436;-74
2023/03/31 05:57:35;;;;;;;9.88;4.00;;;;;;;10.04;85.98;63033.22;5028919;28;20230;-76
2023/03/31 06:00:02;;;;;;;6.25;4.07;;;;;;;10.21;83.86;63051.38;5029339;28;20257;-73
2023/03/31 06:02:29;;;;;;;4.30;3.58;;;;;;;10.50;80.81;63080.84;5027010;28;20399;-75
2023/03/31 06:04:57;;;;;;;7.72;4.00;;;;;;;10.82;78.45;63113.97;5026176;28;20221;-74
2023/03/31 06:07:25;;;;;;;6.18;3.70;;;;;;;10.96;75.89;63131.00;5025513;28;20245;-76
2023/03/31 06:09:52;;;;;;;4.28;3.55;;;;;;;11.18;75.36;63151.25;5026076;28;20269;-76
2023/03/31 06:12:19;;;;;;;4.85;3.85;;;;;;;11.41;74.61;63174.53;5041041;28;20229;-75
2023/03/31 06:14:46;;;;;;;4.05;3.78;;;;;;;11.58;72.50;63189.59;5045509;28;20198;-75
2023/03/31 06:17:13;;;;;;;4.72;3.35;;;;;;;11.58;73.33;63192.66;5041679;28;20235;-76
2023/03/31 06:19:40;;;;;;;6.18;3.72;;;;;;;11.64;73.45;63195.84;5030189;28;20261;-76
2023/03/31 06:22:08;;;;;;;7.53;4.50;;;;;;;11.23;75.82;63151.31;5040299;28;20237;-75
2023/03/31 06:24:35;;;;;;;6.60;3.60;;;;;;;11.15;77.48;63145.06;5039662;28;20202;-76
2023/03/31 06:27:02;;;;;;;4.28;3.85;;;;;;;11.21;78.03;63146.72;5043306;28;20260;-75
2023/03/31 06:29:29;;;;;;;8.55;5.25;;;;;;;11.05;79.20;63135.22;5043521;28;20242;-76
2023/03/31 06:31:56;;;;;;;5.57;4.72;;;;;;;11.21;79.39;63151.28;5030609;28;20222;-75
2023/03/31 06:34:23;;;;;;;5.15;4.00;;;;;;;11.29;79.85;63159.56;5042669;28;20198;-76
2023/03/31 06:36:50;;;;;;;6.25;4.55;;;;;;;11.28;79.90;63161.59;5042860;28;20256;-75
2023/03/31 06:39:18;;;;;;;11.40;5.40;;;;;;;11.32;80.36;63165.22;5041650;28;20253;-75
2023/03/31 06:41:45;;;;;;;11.57;5.22;;;;;;;11.26;79.05;63159.53;5029530;28;20255;-76
2023/03/31 06:44:15;;;;;;;6.00;5.20;;;;;;;11.23;80.07;63150.81;5034636;28;20249;-74
2023/03/31 06:46:42;;;;;;;10.32;5.50;;;;;;;11.18;79.20;63150.72;5039228;28;20241;-76
2023/03/31 06:49:08;;;;;;;6.88;5.53;;;;;;;11.40;78.86;63168.41;5040869;28;20257;-75
2023/03/31 06:51:35;;;;;;;8.60;5.22;;;;;;;11.59;78.42;63191.16;5032359;28;20217;-75
2023/03/31 06:54:03;;;;;;;10.52;5.57;;;;;;;11.75;77.18;63209.28;5037573;28;20261;-75
2023/03/31 06:56:31;;;;;;;10.00;5.88;;;;;;;11.65;77.91;63201.97;5039695;28;20218;-76
2023/03/31 06:58:58;;;;;;;6.63;5.57;;;;;;;11.48;79.86;63186.91;5032418;28;20265;-76
2023/03/31 07:01:25;;;;;;;7.75;5.57;;;;;;;11.43;79.99;63177.13;5042098;28;20202;-75
2023/03/31 07:03:52;;;;;;;9.45;4.80;;;;;;;11.68;78.28;63202.53;5040111;28;20194;-75
2023/03/31 07:06:19;;;;;;;8.27;4.85;;;;;;;11.94;76.52;63221.31;5040577;28;20251;-76
2023/03/31 07:08:47;;;;;;;5.35;4.55;;;;;;;12.01;75.79;63236.22;5042730;28;20248;-75
2023/03/31 07:11:13;;;;;;;5.85;4.45;;;;;;;11.82;75.37;63213.97;5040999;28;20201;-77
2023/03/31 07:13:41;;;;;;;4.75;4.35;;;;;;;11.80;76.19;63214.97;5041919;28;20198;-76
2023/03/31 07:16:09;;;;;;;12.25;4.43;;;;;;;12.00;75.66;63233.16;5041316;28;20210;-75
2023/03/31 07:18:36;;;;;;;13.07;5.22;;;;;;;12.10;75.18;63248.09;5040190;28;20241;-75
2023/03/31 07:21:06;;;;;;;4.95;4.30;;;;;;;11.93;76.38;63223.34;5040701;28;20221;-75
2023/03/31 07:23:33;;;;;;;5.65;4.10;;;;;;;12.05;76.03;63240.88;5035454;28;20185;-75
2023/03/31 07:26:01;;;;;;;6.38;4.78;;;;;;;12.13;77.58;63251.72;5038013;28;20236;-75
2023/03/31 07:28:28;;;;;;;9.38;5.10;;;;;;;12.16;73.99;63252.28;5041020;28;20280;-75
2023/03/31 07:30:57;;;;;;;5.05;4.18;;;;;;;12.16;72.71;63249.72;5041591;28;20226;-75
2023/03/31 07:33:24;;;;;;;11.23;4.88;;;;;;;12.40;72.51;63276.63;5035216;28;20273;-76
2023/03/31 07:35:51;;;;;;;6.55;4.90;;;;;;;12.71;69.38;63306.22;5039357;28;20264;-75
2023/03/31 07:38:18;;;;;;;9.63;5.50;;;;;;;12.79;67.53;63317.59;5038984;28;20260;-76
2023/03/31 07:40:45;;;;;;;8.07;4.40;;;;;;;13.02;64.15;63338.41;5039063;28;20448;-75
2023/03/31 07:43:12;;;;;;;7.90;4.32;;;;;;;13.31;63.55;63373.06;5038015;28;20221;-75
2023/03/31 07:45:39;;;;;;;5.50;4.47;;;;;;;13.51;60.97;63389.22;5039895;28;20417;-75
2023/03/31 07:48:08;;;;;;;7.95;4.18;;;;;;;13.67;59.27;63407.88;5037890;28;20234;-76
2023/03/31 07:50:35;;;;;;;7.13;4.40;;;;;;;13.80;58.96;63421.38;5041931;28;20236;-75
2023/03/31 07:53:02;;;;;;;5.47;4.07;;;;;;;13.93;58.60;63435.38;5041116;28;20222;-75
2023/03/31 07:55:29;;;;;;;6.32;4.18;;;;;;;14.04;57.73;63446.28;5043856;28;20277;-75
2023/03/31 07:57:55;;;;;;;4.40;3.60;;;;;;;14.18;57.15;63462.84;5037053;28;20351;-76
2023/03/31 08:00:23;;;;;;;6.07;3.72;;;;;;;14.14;55.09;63451.53;5037100;28;20195;-75
2023/03/31 08:02:50;;;;;;;9.63;4.07;;;;;;;14.09;55.17;63454.03;5033769;28;20226;-76
2023/03/31 08:05:19;;;;;;;4.38;4.00;;;;;;;14.25;53.95;63465.00;5042888;28;20206;-75
2023/03/31 08:07:48;;;;;;;7.25;4.15;;;;;;;14.44;53.82;63490.41;5041942;28;20603;-74
2023/03/31 08:10:18;;;;;;;4.15;3.72;;;;;;;14.68;53.05;63515.31;5041159;28;20246;-75
2023/03/31 08:12:45;;;;;;;6.40;4.80;;;;;;;15.00;53.66;63542.91;5035340;28;20242;-75
2023/03/31 08:15:12;;;;;;;5.85;4.45;;;;;;;15.52;53.09;63604.16;5039391;28;20244;-76
2023/03/31 08:17:39;;;;;;;8.85;5.07;;;;;;;15.95;51.05;63644.25;5035702;28;20229;-76
2023/03/31 08:20:09;;;;;;;6.97;4.60;;;;;;;16.06;49.36;63658.25;5039553;28;20498;-76
2023/03/31 08:22:37;;;;;;;9.45;5.63;;;;;;;15.91;49.36;63637.00;5038486;28;20228;-76
2023/03/31 08:25:05;;;;;;;7.55;4.80;;;;;;;15.59;49.76;63606.28;5042922;28;20479;-75
2023/03/31 08:27:34;;;;;;;7.55;4.38;;;;;;;15.74;49.12;63622.41;5037694;28;20225;-75
2023/03/31 08:30:03;;;;;;;5.32;4.80;;;;;;;15.53;48.82;63594.94;5046618;28;20233;-76
2023/03/31 08:32:31;;;;;;;8.25;5.38;;;;;;;15.34;49.84;63578.22;5036131;28;20226;-75
2023/03/31 08:34:57;;;;;;;10.05;4.63;;;;;;;15.33;50.76;63579.25;5040582;28;20369;-77
2023/03/31 08:37:24;;;;;;;6.15;3.97;;;;;;;15.42;50.04;63591.72;5038837;28;20225;-76
2023/03/31 08:39:53;;;;;;;5.50;4.22;;;;;;;15.66;49.88;63613.56;5038988;28;20230;-75
2023/03/31 08:42:26;;;;;;;6.90;4.03;;;;;;;15.70;51.05;63618.25;5038274;28;20567;-76
2023/03/31 08:44:59;;;;;;;5.80;3.58;;;;;;;15.94;49.87;63642.69;5037726;28;20206;-77
2023/03/31 08:47:30;;;;;;;9.05;3.80;;;;;;;16.09;46.04;63653.66;5031314;28;20299;-75
2023/03/31 08:50:03;;;;;;;8.70;3.13;;;;;;;16.13;44.32;63660.38;5035307;28;20506;-75
2023/03/31 08:52:34;;;;;;;5.75;2.13;;;;;;;15.55;43.96;63602.66;5035731;28;20297;-75
2023/03/31 08:55:07;;;;;;;6.43;2.38;;;;;;;15.22;46.38;63570.38;5040378;28;20495;-76
2023/03/31 08:57:41;;;;;;;1.85;1.75;;;;;;;15.20;45.11;63565.75;5034435;28;20225;-75
2023/03/31 09:00:14;;;;;;;2.20;2.10;;;;;;;14.78;45.12;63525.72;5036101;28;20212;-74
2023/03/31 09:02:49;;;;;;;2.22;2.00;;;;;;;14.95;44.08;63540.28;5038289;28;20255;-75
2023/03/31 09:05:48;;;;;;;3.28;2.10;;;;;;;15.36;43.19;63590.06;5034789;28;20380;-74
2023/03/31 09:08:30;;;;;;;2.70;1.58;;;;;;;15.52;42.72;63602.09;5036617;28;20248;-74
2023/03/31 09:11:05;;;;;;;1.80;1.70;;;;;;;15.53;42.87;63605.19;5038796;28;20232;-75
2023/03/31 09:14:04;;;;;;;3.33;1.88;;;;;;;15.46;43.26;63598.44;5041730;28;20264;-75
2023/03/31 09:16:36;;;;;;;4.05;1.80;;;;;;;15.11;43.82;63553.81;5039910;28;20221;-75
2023/03/31 09:19:12;;;;;;;5.03;1.90;;;;;;;15.19;44.06;63570.34;5038268;28;20506;-74
2023/03/31 09:21:43;;;;;;;2.58;1.60;;;;;;;15.52;43.28;63601.56;5040828;28;20221;-75
2023/03/31 09:24:15;;;;;;;2.83;1.70;;;;;;;15.64;42.46;63614.59;5037802;28;20546;-76
2023/03/31 09:26:47;;;;;;;2.08;1.50;;;;;;;15.54;41.84;63601.63;5039868;28;20317;-75
2023/03/31 09:29:18;;;;;;;3.97;1.85;;;;;;;15.50;42.71;63596.94;5039646;28;20229;-76
2023/03/31 09:31:45;;;;;;;4.43;1.92;;;;;;;15.14;43.27;63560.03;5040901;28;20248;-75
2023/03/31 09:34:16;;;;;;;3.05;1.73;;;;;;;15.30;43.05;63576.13;5038347;28;20201;-75
2023/03/31 09:36:43;;;;;;;2.47;1.60;;;;;;;15.38;44.31;63590.09;5041832;28;20233;-75
2023/03/31 09:39:13;;;;;;;5.75;2.55;;;;;;;15.65;43.36;63612.53;5040985;28;20268;-76
2023/03/31 09:41:46;;;;;;;2.75;1.70;;;;;;;15.84;42.89;63634.88;5040181;28;20255;-75
2023/03/31 09:44:24;;;;;;;3.13;1.65;;;;;;;15.97;43.15;63648.91;5041841;28;20221;-74
2023/03/31 09:46:52;;;;;;;1.67;1.58;;;;;;;16.19;42.18;63668.69;5037580;28;20256;-75
2023/03/31 09:49:21;;;;;;;1.65;1.55;;;;;;;16.27;42.15;63679.06;5039528;28;20464;-76
2023/03/31 09:51:53;;;;;;;4.07;1.92;;;;;;;16.17;41.91;63672.25;5039156;28;20217;-75
2023/03/31 09:54:28;;;;;;;1.60;1.48;;;;;;;16.22;42.27;63671.81;5038860;28;20208;-75
2023/03/31 09:56:56;;;;;;;2.42;1.48;;;;;;;15.93;42.73;63639.06;5040779;28;20217;-75
2023/03/31 09:59:31;;;;;;;3.65;3.35;;;;;;;15.97;42.32;63648.91;5041016;28;20228;-75
2023/03/31 10:02:02;;;;;;;4.00;1.70;;;;;;;16.09;42.61;63656.22;5039241;28;20268;-75
2023/03/31 10:04:32;;;;;;;3.05;2.05;;;;;;;16.20;42.09;63672.31;5038610;28;20256;-74
2023/03/31 10:07:01;;;;;;;4.50;2.03;;;;;;;15.73;43.91;63621.38;5037939;28;20259;-74
2023/03/31 10:09:31;;;;;;;3.22;1.73;;;;;;;15.81;43.73;63631.72;5034792;28;20305;-74
2023/03/31 10:12:04;;;;;;;8.70;1.52;;;;;;;15.91;42.59;63637.00;5037919;28;20221;-74
2023/03/31 10:14:41;;;;;;;9.85;1.92;;;;;;;15.79;43.65;63627.59;5042166;28;20221;-75
2023/03/31 10:17:14;;;;;;;3.63;2.17;;;;;;;16.04;43.45;63653.59;5041794;28;20296;-76
2023/03/31 10:19:48;;;;;;;4.10;1.92;;;;;;;16.17;42.66;63664.03;5036347;28;20233;-75
2023/03/31 10:22:27;;;;;;;4.20;1.73;;;;;;;16.17;43.35;63666.59;5038030;28;20526;-75
2023/03/31 10:24:54;;;;;;;3.67;1.73;;;;;;;16.46;42.95;63696.78;5038192;28;20193;-75
2023/03/31 10:27:25;;;;;;;3.15;1.63;;;;;;;16.63;41.76;63713.94;5033663;28;20229;-75
2023/03/31 10:29:53;;;;;;;3.20;2.00;;;;;;;16.45;41.67;63697.75;5034458;28;20230;-75
2023/03/31 10:32:27;;;;;;;5.18;1.75;;;;;;;16.03;42.68;63652.56;5036409;28;20255;-74
2023/03/31 10:34:55;;;;;;;4.13;2.17;;;;;;;15.97;42.77;63648.38;5038541;28;20208;-76
2023/03/31 10:37:25;;;;;;;2.10;1.90;;;;;;;15.97;42.57;63651.47;5033096;28;20272;-76
2023/03/31 10:39:58;;;;;;;2.22;1.83;;;;;;;16.18;42.68;63665.06;5043075;28;20229;-76
2023/03/31 10:42:28;;;;;;;2.80;2.47;;;;;;;16.30;43.06;63679.59;5041521;28;20225;-75
2023/03/31 10:45:13;;;;;;;2.45;1.92;;;;;;;16.29;42.57;63681.13;5040721;28;20629;-75
2023/03/31 10:47:40;;;;;;;3.08;1.95;;;;;;;16.27;43.15;63679.06;5039987;28;20220;-75
2023/03/31 10:50:14;;;;;;;3.83;1.95;;;;;;;16.33;43.23;63685.81;5041019;28;20233;-75
2023/03/31 10:52:45;;;;;;;2.25;2.03;;;;;;;16.49;42.31;63702.47;5040644;28;20221;-77
2023/03/31 10:55:14;;;;;;;2.67;1.50;;;;;;;16.62;41.84;63710.34;5041050;28;20205;-73
2023/03/31 10:57:53;;;;;;;2.13;1.92;;;;;;;16.67;42.62;63718.13;5038126;28;20271;-75
2023/03/31 11:00:30;;;;;;;3.80;1.90;;;;;;;16.99;41.76;63749.38;5040858;28;20197;-74
2023/03/31 11:03:20;;;;;;;7.68;2.05;;;;;;;17.19;40.64;63774.78;5037986;28;20420;-72
2023/03/31 11:05:52;;;;;;;4.80;1.60;;;;;;;17.11;40.75;63761.31;5037838;28;20201;-74
2023/03/31 11:08:43;;;;;;;2.70;1.77;;;;;;;17.24;40.15;63774.84;5039964;28;20221;-74
2023/03/31 11:11:32;;;;;;;4.22;1.75;;;;;;;17.33;40.23;63786.78;5038777;28;20289;-74
2023/03/31 11:14:08;;;;;;;2.25;1.95;;;;;;;17.34;40.26;63787.84;5039128;28;20197;-74
2023/03/31 11:16:44;;;;;;;2.20;1.30;;;;;;;17.29;40.65;63782.66;5037124;28;20244;-74
2023/03/31 11:19:24;;;;;;;1.88;1.77;;;;;;;16.97;40.61;63751.91;5038676;28;20217;-74
2023/03/31 11:21:58;;;;;;;2.15;2.00;;;;;;;16.84;40.76;63736.31;5040299;28;20232;-75
2023/03/31 11:24:37;;;;;;;4.40;2.35;;;;;;;16.94;40.57;63746.22;5041337;28;20201;-75
2023/03/31 11:27:17;;;;;;;5.20;1.90;;;;;;;16.44;42.10;63691.59;5044206;28;20232;-77
2023/03/31 11:29:50;;;;;;;4.32;2.22;;;;;;;16.61;41.70;63717.53;5043775;28;20197;-77
2023/03/31 11:32:40;;;;;;;5.13;2.28;;;;;;;16.86;40.94;63738.41;5041145;28;20474;-75
2023/03/31 11:35:20;;;;;;;3.35;2.15;;;;;;;17.03;40.70;63755.59;5044753;28;20201;-76
2023/03/31 11:38:04;;;;;;;5.70;2.28;;;;;;;17.17;39.84;63772.72;5040716;28;20275;-76
2023/03/31 11:40:49;;;;;;;4.93;2.70;;;;;;;17.36;39.89;63792.50;5047226;28;20204;-77
2023/03/31 11:43:25;;;;;;;3.10;2.22;;;;;;;17.20;40.48;63775.84;5044672;28;20232;-77
2023/03/31 11:45:59;;;;;;;2.42;1.70;;;;;;;17.09;39.73;63762.34;5046037;28;20197;-77
2023/03/31 11:48:36;;;;;;;1.80;1.50;;;;;;;17.15;40.34;63771.16;5042558;28;20263;-77
2023/03/31 11:51:05;;;;;;;4.00;1.73;;;;;;;17.25;40.23;63781.06;5039394;28;20275;-77
2023/03/31 11:53:36;;;;;;;2.38;2.15;;;;;;;16.93;41.31;63747.72;5045216;28;20216;-78
2023/03/31 11:56:06;;;;;;;2.25;1.83;;;;;;;16.95;41.78;63750.34;5043654;28;20255;-77